Time;durP1;ratioP1;P1;durP2;ratioP2;P2;SDS_P1;SDS_P2;PMS_P1;PMS_P2;Temp;Humidity;BMP_temperature;BMP_pressure;BME280_temperature;BME280_humidity;BME280_pressure;Samples;Min_cycle;Max_cycle;Signal;HPM_P1;HPM_P2
2024/04/06 00:01:21;;;;;;;1.50;0.97;;;13.90;99.90;;;;;;4996467;28;20452;-46
2024/04/06 00:03:51;;;;;;;1.30;1.10;;;13.90;99.90;;;;;;4992475;28;20427;-46
2024/04/06 00:06:17;;;;;;;1.70;1.20;;;13.90;99.90;;;;;;4990590;28;20952;-46
2024/04/06 00:08:53;;;;;;;1.50;1.13;;;13.90;99.90;;;;;;4993398;28;20451;-47
2024/04/06 00:11:20;;;;;;;1.80;1.10;;;13.90;99.90;;;;;;4991839;28;20475;-46
2024/04/06 00:13:47;;;;;;;1.30;0.77;;;13.90;99.90;;;;;;4991035;28;21025;-46
2024/04/06 00:16:14;;;;;;;1.50;1.10;;;13.90;99.90;;;;;;4994465;28;20792;-47
2024/04/06 00:18:41;;;;;;;4.03;1.30;;;13.90;99.90;;;;;;4977103;28;20788;-46
2024/04/06 00:21:08;;;;;;;1.43;0.90;;;13.90;99.90;;;;;;4996286;28;20448;-46
2024/04/06 00:23:35;;;;;;;1.30;1.10;;;13.90;99.90;;;;;;4973969;28;20540;-46
2024/04/06 00:26:04;;;;;;;1.20;0.83;;;13.90;99.90;;;;;;4992052;28;20537;-47
2024/04/06 00:28:34;;;;;;;1.50;1.20;;;13.90;99.90;;;;;;4989843;28;20560;-46
2024/04/06 00:31:00;;;;;;;1.40;1.17;;;13.90;99.90;;;;;;4990238;28;21378;-46
2024/04/06 00:33:28;;;;;;;1.23;0.90;;;13.90;99.90;;;;;;4990140;28;20469;-48
2024/04/06 00:35:54;;;;;;;1.43;1.03;;;13.90;99.90;;;;;;4989949;28;20449;-46
2024/04/06 00:38:24;;;;;;;1.50;1.10;;;13.90;99.90;;;;;;4990456;28;20962;-46
2024/04/06 00:40:53;;;;;;;1.40;0.80;;;13.90;99.90;;;;;;4989509;28;20457;-46
2024/04/06 00:43:22;;;;;;;1.40;1.00;;;13.90;99.90;;;;;;4994524;28;20523;-47
2024/04/06 00:45:48;;;;;;;1.50;1.00;;;13.90;99.90;;;;;;4993496;28;20523;-47
2024/04/06 00:48:15;;;;;;;1.50;1.00;;;13.90;99.90;;;;;;5002178;28;20436;-47
2024/04/06 00:50:41;;;;;;;1.20;1.07;;;13.90;99.90;;;;;;5003145;28;20524;-49
2024/04/06 00:53:08;;;;;;;1.60;1.20;;;13.90;99.90;;;;;;5000908;28;20457;-47
2024/04/06 00:55:34;;;;;;;1.30;0.90;;;13.90;99.90;;;;;;4993410;28;20444;-46
2024/04/06 00:58:02;;;;;;;1.63;1.27;;;13.90;99.90;;;;;;4995174;28;20485;-47
2024/04/06 01:00:29;;;;;;;1.77;1.20;;;13.90;99.90;;;;;;4992535;28;20612;-47
2024/04/06 01:02:56;;;;;;;1.17;0.80;;;13.90;99.90;;;;;;4993098;28;20531;-48
2024/04/06 01:05:23;;;;;;;1.87;1.30;;;13.90;99.90;;;;;;4999486;28;20436;-46
2024/04/06 01:07:50;;;;;;;1.33;0.80;;;13.90;99.90;;;;;;4993203;28;20436;-46
2024/04/06 01:10:16;;;;;;;1.47;1.10;;;14.00;99.90;;;;;;4994719;28;20468;-47
2024/04/06 01:12:46;;;;;;;1.37;0.87;;;13.90;99.90;;;;;;4992085;28;20548;-48
2024/04/06 01:15:12;;;;;;;2.03;1.53;;;13.90;99.90;;;;;;4997656;28;20437;-46
2024/04/06 01:17:41;;;;;;;1.30;0.80;;;13.90;99.90;;;;;;4997194;28;20437;-46
2024/04/06 01:20:08;;;;;;;1.80;1.10;;;13.90;99.90;;;;;;4996326;28;20928;-46
2024/04/06 01:22:35;;;;;;;1.87;1.10;;;13.90;99.90;;;;;;4995052;28;20535;-47
2024/04/06 01:25:04;;;;;;;1.93;1.10;;;13.90;99.90;;;;;;5005808;28;20443;-46
2024/04/06 01:27:31;;;;;;;1.40;1.07;;;13.90;99.90;;;;;;4997026;28;20978;-46
2024/04/06 01:29:58;;;;;;;1.27;1.10;;;13.90;99.90;;;;;;4995756;28;20463;-46
2024/04/06 01:32:25;;;;;;;1.57;1.07;;;13.90;99.90;;;;;;5005053;28;21051;-48
2024/04/06 01:34:54;;;;;;;1.60;1.00;;;13.90;99.90;;;;;;4994345;28;20428;-48
2024/04/06 01:37:22;;;;;;;3.00;1.10;;;13.90;99.90;;;;;;5006029;28;20471;-46
2024/04/06 01:39:48;;;;;;;1.30;0.80;;;13.90;99.90;;;;;;4997897;28;20452;-46
2024/04/06 01:42:16;;;;;;;1.50;1.30;;;13.90;99.90;;;;;;4991835;28;20433;-47
2024/04/06 01:44:42;;;;;;;1.53;1.10;;;13.90;99.90;;;;;;4994118;28;20833;-47
2024/04/06 01:47:09;;;;;;;1.33;0.90;;;13.90;99.90;;;;;;4993134;28;20574;-47
2024/04/06 01:49:36;;;;;;;1.70;1.20;;;13.90;99.90;;;;;;4992387;28;21039;-46
2024/04/06 01:52:03;;;;;;;1.40;1.10;;;13.90;99.90;;;;;;4995667;28;20476;-46
2024/04/06 01:54:29;;;;;;;1.40;0.90;;;13.90;99.90;;;;;;4992714;28;20436;-46
2024/04/06 01:56:56;;;;;;;1.70;1.13;;;13.90;99.90;;;;;;4990076;28;20532;-46
2024/04/06 01:59:24;;;;;;;1.30;0.97;;;13.90;99.90;;;;;;4994201;28;20465;-47
2024/04/06 02:01:51;;;;;;;2.30;1.10;;;13.90;99.90;;;;;;4992241;28;20470;-46
2024/04/06 02:04:17;;;;;;;1.30;1.00;;;13.90;99.90;;;;;;5002363;28;20420;-47
2024/04/06 02:06:47;;;;;;;1.97;1.23;;;13.90;99.90;;;;;;5004971;28;20591;-46
2024/04/06 02:09:13;;;;;;;1.20;0.80;;;13.90;99.90;;;;;;4997304;28;21033;-47
2024/04/06 02:11:40;;;;;;;2.10;1.10;;;13.90;99.90;;;;;;4978181;28;20445;-47
2024/04/06 02:14:06;;;;;;;1.40;0.83;;;13.90;99.90;;;;;;4995300;28;20582;-46
2024/04/06 02:16:34;;;;;;;2.67;1.20;;;13.90;99.90;;;;;;4992274;28;20472;-46
2024/04/06 02:19:00;;;;;;;1.40;0.90;;;13.90;99.90;;;;;;5000183;28;20935;-46
2024/04/06 02:21:28;;;;;;;1.20;0.90;;;13.90;99.90;;;;;;4999018;28;20468;-48
2024/04/06 02:23:54;;;;;;;1.30;0.97;;;13.90;99.90;;;;;;4998384;28;20479;-47
2024/04/06 02:26:21;;;;;;;1.30;0.80;;;13.90;99.90;;;;;;4994011;28;20999;-46
2024/04/06 02:28:47;;;;;;;1.77;0.93;;;13.90;99.90;;;;;;4993993;28;20515;-46
2024/04/06 02:31:14;;;;;;;2.60;1.07;;;13.90;99.90;;;;;;4991535;28;20514;-47
2024/04/06 02:33:42;;;;;;;1.33;0.87;;;13.90;99.90;;;;;;4993838;28;20577;-46
2024/04/06 02:36:09;;;;;;;1.60;1.10;;;13.90;99.90;;;;;;5001496;28;20452;-46
2024/04/06 02:38:38;;;;;;;1.83;1.10;;;13.90;99.90;;;;;;4992914;28;21006;-48
2024/04/06 02:41:05;;;;;;;1.60;1.00;;;13.90;99.90;;;;;;4993346;28;20444;-47
2024/04/06 02:43:31;;;;;;;2.00;1.33;;;13.90;99.90;;;;;;5004522;28;20534;-49
2024/04/06 02:45:58;;;;;;;1.73;1.07;;;13.90;99.90;;;;;;4994967;28;20454;-48
2024/04/06 02:48:24;;;;;;;1.30;0.90;;;13.90;99.90;;;;;;4997442;28;20857;-47
2024/04/06 02:50:53;;;;;;;2.37;0.97;;;13.90;99.90;;;;;;4990670;28;20457;-46
2024/04/06 02:53:19;;;;;;;1.70;1.10;;;13.90;99.90;;;;;;5001155;28;20456;-46
2024/04/06 02:55:46;;;;;;;1.67;1.33;;;13.90;99.90;;;;;;4994895;28;20463;-46
2024/04/06 02:58:12;;;;;;;1.63;0.97;;;13.90;99.90;;;;;;4992090;28;20448;-47
2024/04/06 03:00:39;;;;;;;1.50;1.20;;;13.90;99.90;;;;;;4991066;28;20560;-46
2024/04/06 03:03:05;;;;;;;1.73;0.90;;;13.90;99.90;;;;;;5002151;28;20435;-46
2024/04/06 03:05:32;;;;;;;1.67;1.00;;;13.90;99.90;;;;;;5008805;28;20444;-50
2024/04/06 03:08:00;;;;;;;1.87;0.73;;;13.90;99.90;;;;;;5002614;28;20444;-46
2024/04/06 03:10:27;;;;;;;1.20;0.77;;;13.90;99.90;;;;;;4995544;28;20533;-46
2024/04/06 03:12:53;;;;;;;1.63;1.53;;;13.90;99.90;;;;;;4992327;28;20577;-48
2024/04/06 03:15:23;;;;;;;1.73;0.97;;;13.90;99.90;;;;;;4995553;28;20474;-46
2024/04/06 03:17:49;;;;;;;1.83;1.30;;;13.90;99.90;;;;;;4993036;28;20485;-46
2024/04/06 03:20:17;;;;;;;1.57;1.13;;;13.90;99.90;;;;;;4992919;28;20499;-48
2024/04/06 03:22:58;;;;;;;1.70;1.30;;;13.90;99.90;;;;;;4998066;28;20938;-46
2024/04/06 03:25:26;;;;;;;2.50;1.00;;;13.90;99.90;;;;;;5000693;28;20445;-47
2024/04/06 03:27:53;;;;;;;1.50;1.10;;;13.90;99.90;;;;;;4990134;28;20926;-47
2024/04/06 03:30:20;;;;;;;1.90;1.17;;;13.90;99.90;;;;;;4990261;28;20537;-46
2024/04/06 03:32:46;;;;;;;2.20;1.10;;;13.90;99.90;;;;;;4996997;28;20497;-48
2024/04/06 03:35:13;;;;;;;1.70;0.70;;;13.90;99.90;;;;;;4996716;28;20443;-47
2024/04/06 03:37:40;;;;;;;2.03;0.97;;;13.90;99.90;;;;;;5002553;28;20964;-46
2024/04/06 03:40:10;;;;;;;2.00;1.30;;;13.90;99.90;;;;;;4995391;28;20985;-46
2024/04/06 03:42:40;;;;;;;3.40;1.27;;;13.90;99.90;;;;;;4999836;28;20440;-46
2024/04/06 03:45:07;;;;;;;3.10;1.17;;;13.90;99.90;;;;;;4998890;28;20432;-47
2024/04/06 03:47:34;;;;;;;1.60;0.90;;;13.90;99.90;;;;;;4998475;28;20447;-46
2024/04/06 03:50:00;;;;;;;1.70;0.93;;;13.90;99.90;;;;;;4990379;28;20532;-46
2024/04/06 03:52:27;;;;;;;1.60;1.40;;;13.90;99.90;;;;;;4993265;28;20551;-48
2024/04/06 03:54:53;;;;;;;1.80;1.20;;;13.90;99.90;;;;;;4993898;28;20547;-46
2024/04/06 03:57:20;;;;;;;1.93;1.00;;;13.90;99.90;;;;;;4990569;28;21009;-46
2024/04/06 03:59:48;;;;;;;2.17;1.23;;;13.90;99.90;;;;;;4993187;28;20487;-48
2024/04/06 04:02:17;;;;;;;1.37;1.07;;;13.80;99.90;;;;;;4988666;28;20541;-46
2024/04/06 04:04:43;;;;;;;1.30;1.10;;;13.90;99.90;;;;;;4997585;28;20441;-46
2024/04/06 04:07:11;;;;;;;1.50;1.00;;;13.90;99.90;;;;;;4993517;28;20516;-47
2024/04/06 04:09:37;;;;;;;1.40;1.03;;;13.90;99.90;;;;;;4990233;28;20594;-46
2024/04/06 04:12:04;;;;;;;1.20;0.83;;;13.90;99.90;;;;;;4997918;28;20481;-49
2024/04/06 04:14:31;;;;;;;2.10;1.30;;;13.90;99.90;;;;;;4990059;28;21019;-46
2024/04/06 04:16:59;;;;;;;2.67;1.40;;;13.90;99.90;;;;;;4990553;28;20528;-47
2024/04/06 04:19:25;;;;;;;1.60;1.37;;;13.80;99.90;;;;;;4993415;28;20491;-46
2024/04/06 04:21:52;;;;;;;1.57;1.00;;;13.90;99.90;;;;;;4990037;28;20519;-47
2024/04/06 04:24:19;;;;;;;3.43;1.50;;;13.80;99.90;;;;;;4990476;28;20527;-48
2024/04/06 04:26:47;;;;;;;2.13;1.23;;;13.80;99.90;;;;;;4996384;28;20496;-49
2024/04/06 04:29:15;;;;;;;1.87;0.97;;;13.80;99.90;;;;;;4992504;28;21017;-46
2024/04/06 04:31:45;;;;;;;2.97;1.17;;;13.80;99.90;;;;;;4990008;28;20521;-46
2024/04/06 04:34:15;;;;;;;1.77;1.10;;;13.90;99.90;;;;;;4989755;28;20549;-46
2024/04/06 04:36:43;;;;;;;1.20;1.00;;;13.80;99.90;;;;;;4995398;28;20475;-46
2024/04/06 04:39:09;;;;;;;1.90;0.87;;;13.80;99.90;;;;;;4990807;28;20506;-46
2024/04/06 04:41:37;;;;;;;2.17;1.00;;;13.80;99.90;;;;;;4989419;28;20800;-48
2024/04/06 04:44:04;;;;;;;6.43;1.40;;;13.80;99.90;;;;;;4994985;28;20466;-46
2024/04/06 04:46:34;;;;;;;1.40;0.97;;;13.80;99.90;;;;;;4997344;28;20515;-46
2024/04/06 04:49:00;;;;;;;2.10;1.33;;;13.80;99.90;;;;;;4998162;28;20474;-46
2024/04/06 04:51:29;;;;;;;1.50;1.10;;;13.80;99.90;;;;;;4992628;28;20444;-46
2024/04/06 04:53:55;;;;;;;2.27;1.40;;;13.80;99.90;;;;;;5000493;28;21013;-46
2024/04/06 04:56:24;;;;;;;2.70;0.90;;;13.80;99.90;;;;;;4990097;28;20430;-48
2024/04/06 04:58:50;;;;;;;2.13;1.40;;;13.80;99.90;;;;;;4999092;28;20556;-46
2024/04/06 05:01:19;;;;;;;1.90;1.10;;;13.80;99.90;;;;;;4995346;28;20532;-46
2024/04/06 05:03:45;;;;;;;1.83;1.20;;;13.80;99.90;;;;;;4994301;28;20520;-48
2024/04/06 05:06:13;;;;;;;1.87;1.40;;;13.80;99.90;;;;;;4998224;28;20431;-47
2024/04/06 05:08:40;;;;;;;1.80;1.20;;;13.80;99.90;;;;;;4993887;28;20436;-47
2024/04/06 05:11:10;;;;;;;1.93;1.60;;;13.80;99.90;;;;;;4999797;28;20540;-45
2024/04/06 05:13:36;;;;;;;2.10;1.27;;;13.80;99.90;;;;;;4989381;28;20585;-45
2024/04/06 05:16:03;;;;;;;3.07;1.57;;;13.80;99.90;;;;;;4990397;28;20434;-47
2024/04/06 05:18:30;;;;;;;2.73;1.10;;;13.80;99.90;;;;;;4997201;28;20517;-48
2024/04/06 05:20:58;;;;;;;2.50;1.40;;;13.80;99.90;;;;;;4990191;28;21381;-47
2024/04/06 05:23:27;;;;;;;2.40;1.40;;;13.80;99.90;;;;;;5002232;28;20545;-46
2024/04/06 05:25:56;;;;;;;1.43;1.13;;;13.80;99.90;;;;;;4990011;28;20522;-46
2024/04/06 05:28:23;;;;;;;1.20;0.83;;;13.80;99.90;;;;;;4992051;28;20454;-48
2024/04/06 05:30:51;;;;;;;2.60;1.60;;;13.80;99.90;;;;;;4992633;28;20459;-46
2024/04/06 05:33:18;;;;;;;1.70;1.30;;;13.80;99.90;;;;;;5001843;28;20536;-46
2024/04/06 05:35:48;;;;;;;1.87;1.23;;;13.80;99.90;;;;;;4993208;28;21001;-46
2024/04/06 05:38:14;;;;;;;1.70;1.40;;;13.80;99.90;;;;;;5001058;28;21021;-47
2024/04/06 05:40:43;;;;;;;3.73;1.40;;;13.80;99.90;;;;;;5000291;28;20465;-47
2024/04/06 05:43:11;;;;;;;2.83;1.40;;;13.80;99.90;;;;;;5001340;28;20442;-47
2024/04/06 05:45:39;;;;;;;1.83;1.37;;;13.80;99.90;;;;;;5000353;28;20441;-47
2024/04/06 05:48:07;;;;;;;2.03;1.50;;;13.80;99.90;;;;;;5005145;28;20472;-48
2024/04/06 05:50:35;;;;;;;1.97;1.20;;;13.80;99.90;;;;;;4997066;28;20547;-46
2024/04/06 05:53:02;;;;;;;1.97;1.50;;;13.80;99.90;;;;;;4984378;28;20568;-46
2024/04/06 05:55:29;;;;;;;2.50;1.57;;;13.80;99.90;;;;;;4993009;28;20849;-46
2024/04/06 05:57:56;;;;;;;1.30;1.10;;;13.80;99.90;;;;;;4998537;28;20451;-46
2024/04/06 06:00:25;;;;;;;3.00;1.50;;;13.80;99.90;;;;;;4998350;28;20867;-46
2024/04/06 06:02:52;;;;;;;5.23;2.13;;;13.80;99.90;;;;;;4994270;28;20776;-46
2024/04/06 06:05:19;;;;;;;1.83;1.03;;;13.80;99.90;;;;;;5002176;28;20534;-46
2024/04/06 06:07:45;;;;;;;2.90;1.40;;;13.80;99.90;;;;;;4994717;28;20443;-46
2024/04/06 06:10:13;;;;;;;2.17;1.77;;;13.80;99.90;;;;;;4999619;28;20444;-46
2024/04/06 06:12:39;;;;;;;1.20;0.90;;;13.80;99.90;;;;;;4992133;28;20495;-48
2024/04/06 06:15:07;;;;;;;2.23;1.37;;;13.80;99.90;;;;;;4996357;28;20444;-46
2024/04/06 06:17:34;;;;;;;1.37;1.23;;;13.80;99.90;;;;;;4976600;28;20870;-47
2024/04/06 06:20:04;;;;;;;2.70;1.20;;;13.80;99.90;;;;;;4995743;28;20989;-46
2024/04/06 06:22:30;;;;;;;1.37;1.13;;;13.80;99.90;;;;;;5005578;28;20464;-46
2024/04/06 06:24:58;;;;;;;1.70;1.20;;;13.80;99.90;;;;;;4992459;28;20438;-48
2024/04/06 06:27:24;;;;;;;2.30;1.50;;;13.80;99.90;;;;;;5001261;28;20440;-46
2024/04/06 06:29:52;;;;;;;2.90;1.33;;;13.80;99.90;;;;;;4999136;28;20484;-46
2024/04/06 06:32:18;;;;;;;1.40;1.20;;;13.80;99.90;;;;;;4996641;28;20443;-46
2024/04/06 06:34:47;;;;;;;2.07;1.30;;;13.80;99.90;;;;;;4976023;28;20517;-46
2024/04/06 06:37:13;;;;;;;2.57;1.60;;;13.80;99.90;;;;;;4978211;28;20880;-47
2024/04/06 06:39:40;;;;;;;1.93;1.17;;;13.80;99.90;;;;;;4996014;28;20463;-47
2024/04/06 06:42:08;;;;;;;2.03;1.00;;;13.90;99.90;;;;;;4998971;28;20944;-47
2024/04/06 06:44:36;;;;;;;1.97;1.30;;;13.80;99.90;;;;;;4994238;28;20446;-46
2024/04/06 06:47:02;;;;;;;2.00;1.60;;;13.90;99.90;;;;;;4999230;28;20441;-46
2024/04/06 06:49:29;;;;;;;2.50;1.50;;;13.90;99.90;;;;;;5001020;28;20460;-47
2024/04/06 06:51:57;;;;;;;4.43;1.63;;;13.90;99.90;;;;;;4998378;28;20926;-46
2024/04/06 06:54:27;;;;;;;1.83;1.07;;;13.90;99.90;;;;;;4996752;28;20493;-46
2024/04/06 06:56:54;;;;;;;1.90;1.20;;;13.90;99.90;;;;;;5001304;28;20524;-47
2024/04/06 06:59:21;;;;;;;1.73;1.20;;;14.00;99.90;;;;;;4990731;28;20468;-49
2024/04/06 07:01:47;;;;;;;3.77;2.40;;;14.00;99.90;;;;;;4990878;28;20970;-46
2024/04/06 07:04:15;;;;;;;4.57;1.90;;;14.00;99.90;;;;;;4996525;28;20444;-48
2024/04/06 07:06:41;;;;;;;3.03;1.97;;;14.10;99.90;;;;;;4995655;28;20464;-48
2024/04/06 07:09:13;;;;;;;3.67;1.47;;;14.40;99.90;;;;;;5003030;28;20460;-48
2024/04/06 07:11:40;;;;;;;2.00;1.40;;;14.60;99.90;;;;;;4988951;28;20429;-47
2024/04/06 07:14:11;;;;;;;3.77;1.63;;;14.50;99.90;;;;;;5000850;28;20473;-46
2024/04/06 07:16:37;;;;;;;2.93;1.60;;;14.50;99.90;;;;;;4995382;28;21143;-46
2024/04/06 07:19:05;;;;;;;2.77;1.57;;;14.40;99.90;;;;;;4993878;28;20473;-46
2024/04/06 07:21:31;;;;;;;2.87;1.60;;;14.40;99.90;;;;;;4995138;28;20996;-46
2024/04/06 07:23:58;;;;;;;3.10;1.70;;;14.40;99.90;;;;;;4993037;28;20479;-48
2024/04/06 07:26:26;;;;;;;4.00;1.97;;;14.40;99.90;;;;;;4998037;28;20860;-46
2024/04/06 07:28:54;;;;;;;4.07;1.50;;;14.30;99.90;;;;;;4992941;28;20454;-46
2024/04/06 07:31:20;;;;;;;2.63;1.60;;;14.30;99.90;;;;;;5003463;28;20426;-47
2024/04/06 07:33:48;;;;;;;3.60;1.37;;;14.40;99.90;;;;;;4990254;28;20579;-47
2024/04/06 07:36:14;;;;;;;2.37;1.40;;;14.30;99.90;;;;;;5000137;28;20920;-46
2024/04/06 07:38:41;;;;;;;2.90;1.97;;;14.40;99.90;;;;;;4993038;28;20481;-46
2024/04/06 07:41:08;;;;;;;3.27;1.37;;;14.30;99.90;;;;;;5001884;28;20467;-46
2024/04/06 07:43:37;;;;;;;3.17;1.63;;;14.40;99.90;;;;;;5004174;28;20440;-46
2024/04/06 07:46:04;;;;;;;2.23;1.60;;;14.40;99.90;;;;;;5005242;28;20938;-46
2024/04/06 07:48:31;;;;;;;3.67;1.30;;;14.40;99.90;;;;;;4997352;28;20490;-47
2024/04/06 07:50:57;;;;;;;2.63;1.50;;;14.50;99.90;;;;;;4999422;28;20437;-47
2024/04/06 07:53:24;;;;;;;2.20;1.43;;;14.50;99.90;;;;;;4989963;28;20482;-47
2024/04/06 07:55:50;;;;;;;2.97;1.50;;;14.50;99.90;;;;;;4993678;28;20822;-47
2024/04/06 07:58:18;;;;;;;5.90;1.50;;;14.60;99.90;;;;;;5001216;28;20800;-47
2024/04/06 08:00:45;;;;;;;2.50;1.47;;;14.60;99.90;;;;;;4998306;28;20466;-46
2024/04/06 08:03:12;;;;;;;2.93;1.80;;;14.70;99.90;;;;;;4991131;28;20436;-46
2024/04/06 08:05:38;;;;;;;3.77;1.77;;;14.90;99.80;;;;;;4998749;28;20874;-48
2024/04/06 08:08:07;;;;;;;1.80;1.10;;;15.00;99.50;;;;;;4997396;28;20438;-48
2024/04/06 08:10:33;;;;;;;3.60;1.90;;;14.90;99.90;;;;;;4999758;28;20442;-47
2024/04/06 08:13:01;;;;;;;5.17;1.23;;;14.80;99.90;;;;;;4995022;28;20442;-47
2024/04/06 08:15:27;;;;;;;2.30;1.37;;;14.80;99.90;;;;;;5001849;28;20857;-46
2024/04/06 08:17:56;;;;;;;2.20;1.40;;;14.80;99.90;;;;;;5022129;28;20441;-47
2024/04/06 08:20:22;;;;;;;2.40;1.50;;;14.80;99.90;;;;;;4993028;28;20584;-47
2024/04/06 08:22:49;;;;;;;1.63;1.20;;;14.70;99.90;;;;;;5003429;28;20528;-47
2024/04/06 08:25:15;;;;;;;5.20;1.80;;;14.70;99.90;;;;;;4989511;28;20441;-47
2024/04/06 08:27:42;;;;;;;2.23;1.60;;;14.70;99.90;;;;;;4989253;28;20437;-46
2024/04/06 08:30:11;;;;;;;1.50;1.30;;;14.70;99.90;;;;;;4974010;28;20515;-46
2024/04/06 08:32:40;;;;;;;1.80;1.17;;;14.70;99.90;;;;;;4991304;28;20497;-47
2024/04/06 08:35:11;;;;;;;3.00;1.10;;;14.70;99.90;;;;;;4997376;28;20507;-46
2024/04/06 08:37:37;;;;;;;2.23;1.50;;;14.70;99.90;;;;;;4989374;28;20513;-48
2024/04/06 08:40:05;;;;;;;3.77;1.50;;;14.70;99.90;;;;;;4998390;28;20544;-48
2024/04/06 08:42:39;;;;;;;3.63;1.80;;;14.70;99.90;;;;;;5002994;28;20440;-48
2024/04/06 08:45:08;;;;;;;2.23;1.10;;;14.70;99.90;;;;;;4991795;28;20517;-48
2024/04/06 08:47:35;;;;;;;1.70;1.30;;;14.70;99.90;;;;;;5000401;28;20426;-48
2024/04/06 08:50:06;;;;;;;3.30;1.60;;;14.70;99.90;;;;;;4990583;28;20462;-46
2024/04/06 08:52:36;;;;;;;4.67;1.97;;;15.00;99.90;;;;;;5002929;28;20471;-45
2024/04/06 08:55:04;;;;;;;4.70;1.57;;;15.40;98.70;;;;;;4984827;28;21069;-46
2024/04/06 08:57:34;;;;;;;2.73;1.27;;;15.80;96.30;;;;;;4994080;28;20533;-47
2024/04/06 09:00:06;;;;;;;3.60;1.20;;;16.10;95.00;;;;;;4988032;28;20457;-44
2024/04/06 09:02:33;;;;;;;2.67;1.73;;;16.20;94.30;;;;;;4996037;28;20931;-43
2024/04/06 09:05:00;;;;;;;4.63;1.50;;;16.30;93.60;;;;;;4999099;28;20433;-48
2024/04/06 09:07:26;;;;;;;2.23;1.47;;;16.40;93.40;;;;;;5004470;28;20433;-44
2024/04/06 09:09:56;;;;;;;2.00;1.10;;;16.40;93.40;;;;;;5000407;28;20536;-45
2024/04/06 09:12:22;;;;;;;2.00;1.07;;;16.40;93.30;;;;;;5024675;28;20440;-45
2024/04/06 09:14:49;;;;;;;2.13;1.30;;;16.50;93.10;;;;;;5002917;28;20579;-45
2024/04/06 09:17:17;;;;;;;2.93;1.53;;;16.50;92.60;;;;;;4993408;28;20540;-47
2024/04/06 09:19:45;;;;;;;1.73;1.10;;;16.50;92.20;;;;;;4991296;28;20477;-48
2024/04/06 09:22:12;;;;;;;3.73;1.70;;;16.60;91.30;;;;;;4998862;28;20446;-45
2024/04/06 09:24:39;;;;;;;4.33;1.20;;;16.70;91.20;;;;;;5003060;28;20921;-46
2024/04/06 09:27:09;;;;;;;2.73;1.20;;;16.80;90.10;;;;;;5004774;28;20782;-45
2024/04/06 09:29:36;;;;;;;4.30;1.13;;;16.90;89.30;;;;;;4992912;28;20497;-45
2024/04/06 09:32:04;;;;;;;2.90;1.17;;;17.00;88.80;;;;;;4999271;28;20517;-46
2024/04/06 09:34:32;;;;;;;2.13;1.10;;;16.90;88.50;;;;;;5003276;28;20560;-45
2024/04/06 09:37:01;;;;;;;2.40;1.00;;;16.90;89.10;;;;;;5005941;28;20959;-44
2024/04/06 09:39:31;;;;;;;1.77;1.23;;;16.90;89.30;;;;;;5000398;28;20557;-44
2024/04/06 09:41:58;;;;;;;2.17;1.10;;;17.00;87.30;;;;;;4990986;28;20442;-44
2024/04/06 09:44:28;;;;;;;2.33;1.10;;;17.00;87.80;;;;;;4992160;28;20442;-44
2024/04/06 09:46:54;;;;;;;1.70;0.83;;;17.00;88.10;;;;;;4998399;28;20523;-44
2024/04/06 09:49:24;;;;;;;2.70;1.13;;;17.00;88.50;;;;;;5026576;28;20915;-44
2024/04/06 09:51:50;;;;;;;3.43;1.70;;;17.00;87.90;;;;;;5002445;28;20457;-44
2024/04/06 09:54:18;;;;;;;1.37;0.90;;;17.10;85.00;;;;;;4991940;28;20504;-44
2024/04/06 09:56:45;;;;;;;3.50;1.10;;;17.10;84.80;;;;;;5000255;28;20593;-44
2024/04/06 09:59:21;;;;;;;2.90;1.37;;;17.20;83.10;;;;;;5002185;28;20993;-44
2024/04/06 10:01:48;;;;;;;1.13;0.87;;;17.10;82.50;;;;;;4996110;28;20441;-44
2024/04/06 10:04:26;;;;;;;2.80;1.10;;;17.20;82.10;;;;;;4999848;28;20450;-43
2024/04/06 10:06:54;;;;;;;2.87;1.00;;;17.20;80.50;;;;;;4994938;28;20450;-44
2024/04/06 10:09:22;;;;;;;1.93;1.40;;;17.30;79.30;;;;;;4998072;28;20458;-44
2024/04/06 10:11:58;;;;;;;1.67;1.10;;;17.30;79.20;;;;;;5000149;28;20437;-44
2024/04/06 10:14:26;;;;;;;2.37;0.80;;;17.40;78.20;;;;;;4998291;28;20482;-44
2024/04/06 10:17:05;;;;;;;2.50;1.20;;;17.50;77.10;;;;;;4997269;28;20700;-43
2024/04/06 10:19:32;;;;;;;1.33;1.00;;;17.60;75.50;;;;;;4994336;28;20457;-45
2024/04/06 10:22:03;;;;;;;3.33;1.27;;;17.60;75.90;;;;;;4999009;28;20531;-47
2024/04/06 10:24:30;;;;;;;1.57;1.00;;;17.50;74.30;;;;;;4978294;28;20452;-45
2024/04/06 10:26:57;;;;;;;2.23;0.90;;;17.50;73.00;;;;;;4994055;28;20439;-44
2024/04/06 10:29:24;;;;;;;1.90;1.10;;;17.50;72.80;;;;;;4997139;28;20893;-44
2024/04/06 10:31:51;;;;;;;1.60;1.00;;;17.60;73.00;;;;;;4989631;28;20538;-44
2024/04/06 10:34:19;;;;;;;1.53;1.00;;;17.60;73.30;;;;;;5004264;28;21030;-44
2024/04/06 10:36:46;;;;;;;1.70;1.13;;;;;;;;;;4995340;28;20955;-44
2024/04/06 10:39:13;;;;;;;4.53;1.60;;;17.60;74.00;;;;;;4998342;28;20457;-44
2024/04/06 10:41:42;;;;;;;1.93;1.43;;;17.60;74.50;;;;;;4993456;28;20430;-44
2024/04/06 10:44:09;;;;;;;1.70;1.30;;;17.70;72.60;;;;;;5001351;28;20443;-44
2024/04/06 10:46:36;;;;;;;2.50;1.20;;;17.70;72.90;;;;;;4990533;28;20442;-44
2024/04/06 10:49:09;;;;;;;1.93;0.90;;;17.70;72.70;;;;;;5005475;28;20560;-44
2024/04/06 10:51:37;;;;;;;4.30;1.10;;;17.70;72.40;;;;;;4998033;28;20533;-44
2024/04/06 10:54:04;;;;;;;3.17;1.27;;;17.80;70.70;;;;;;4991251;28;20540;-44
2024/04/06 10:56:31;;;;;;;1.73;1.37;;;18.00;69.40;;;;;;5000651;28;20483;-44
2024/04/06 10:58:58;;;;;;;1.70;1.00;;;17.90;69.80;;;;;;5003095;28;20556;-44
2024/04/06 11:01:24;;;;;;;1.63;1.23;;;17.90;71.50;;;;;;4994966;28;20845;-44
2024/04/06 11:03:52;;;;;;;1.30;1.10;;;17.80;72.60;;;;;;4997288;28;20430;-44
2024/04/06 11:06:18;;;;;;;1.60;1.33;;;17.80;74.60;;;;;;4992494;28;20446;-44
2024/04/06 11:08:47;;;;;;;2.00;1.10;;;17.80;75.10;;;;;;4995990;28;20437;-44
2024/04/06 11:11:13;;;;;;;3.27;1.53;;;17.80;74.60;;;;;;5003938;28;20528;-44
2024/04/06 11:13:41;;;;;;;1.30;0.97;;;18.00;71.30;;;;;;4989451;28;20454;-48
2024/04/06 11:16:10;;;;;;;2.10;1.00;;;18.00;69.90;;;;;;4990385;28;20433;-45
2024/04/06 11:18:41;;;;;;;3.93;1.40;;;18.00;70.70;;;;;;4993814;28;20457;-46
2024/04/06 11:21:09;;;;;;;1.37;1.10;;;18.00;72.10;;;;;;4988709;28;20441;-44
2024/04/06 11:23:36;;;;;;;2.60;1.23;;;18.00;72.30;;;;;;4988931;28;20987;-49
2024/04/06 11:26:05;;;;;;;1.20;0.97;;;18.10;73.10;;;;;;4989642;28;20438;-45
2024/04/06 11:28:32;;;;;;;1.17;1.07;;;18.20;73.10;;;;;;4994174;28;20527;-45
2024/04/06 11:30:59;;;;;;;1.90;1.30;;;18.10;74.20;;;;;;4997924;28;20986;-46
2024/04/06 11:33:27;;;;;;;2.17;1.80;;;18.10;75.40;;;;;;4995887;28;20566;-46
2024/04/06 11:35:54;;;;;;;2.03;1.00;;;18.10;75.90;;;;;;5001107;28;20473;-44
2024/04/06 11:38:21;;;;;;;4.30;1.30;;;18.10;75.90;;;;;;4997358;28;20507;-44
2024/04/06 11:40:47;;;;;;;1.37;1.17;;;18.10;75.60;;;;;;4995327;28;20894;-44
2024/04/06 11:43:16;;;;;;;2.50;1.37;;;18.20;75.90;;;;;;4990419;28;20532;-44
2024/04/06 11:45:42;;;;;;;2.00;1.07;;;18.20;75.10;;;;;;4988852;28;20522;-46
2024/04/06 11:48:12;;;;;;;2.37;0.93;;;18.20;75.70;;;;;;4991892;28;20446;-46
2024/04/06 11:50:38;;;;;;;2.97;1.20;;;18.10;76.80;;;;;;4988178;28;20496;-45
2024/04/06 11:53:05;;;;;;;1.80;1.33;;;18.30;76.00;;;;;;5000159;28;20445;-44
2024/04/06 11:55:31;;;;;;;3.37;1.37;;;18.20;76.40;;;;;;4999750;28;20507;-44
2024/04/06 11:58:02;;;;;;;2.07;1.10;;;18.20;76.90;;;;;;4995026;28;20438;-44
2024/04/06 12:00:29;;;;;;;2.60;1.10;;;18.10;77.50;;;;;;4989063;28;21050;-45
2024/04/06 12:02:57;;;;;;;3.00;1.30;;;18.10;78.30;;;;;;5001831;28;20434;-45
2024/04/06 12:05:24;;;;;;;2.70;1.30;;;18.20;77.60;;;;;;4992108;28;20449;-45
2024/04/06 12:07:51;;;;;;;1.83;1.13;;;18.20;77.20;;;;;;4986990;28;20469;-45
2024/04/06 12:10:17;;;;;;;2.00;1.10;;;18.20;77.40;;;;;;4991430;28;20904;-45
2024/04/06 12:12:45;;;;;;;4.47;1.10;;;18.30;77.10;;;;;;4997405;28;20437;-44
2024/04/06 12:15:11;;;;;;;1.23;1.00;;;18.30;76.00;;;;;;4994748;28;20547;-47
2024/04/06 12:17:39;;;;;;;2.20;0.93;;;18.40;75.00;;;;;;4988952;28;20850;-47
2024/04/06 12:20:06;;;;;;;1.60;1.10;;;18.40;74.90;;;;;;4997320;28;20495;-47
2024/04/06 12:22:34;;;;;;;2.40;0.87;;;18.50;73.80;;;;;;4974926;28;20442;-46
2024/04/06 12:25:00;;;;;;;2.43;1.17;;;18.60;73.20;;;;;;4988002;28;20474;-46
2024/04/06 12:27:27;;;;;;;2.00;1.07;;;18.50;72.80;;;;;;4996788;28;20804;-45
2024/04/06 12:29:53;;;;;;;2.63;1.40;;;18.50;74.30;;;;;;4994386;28;20548;-45
2024/04/06 12:32:20;;;;;;;8.23;1.50;;;18.40;76.10;;;;;;4988004;28;20444;-47
2024/04/06 12:34:48;;;;;;;3.83;1.43;;;18.30;77.30;;;;;;4987586;28;20509;-50
2024/04/06 12:37:15;;;;;;;1.50;1.10;;;18.30;77.30;;;;;;4996813;28;20441;-45
2024/04/06 12:39:42;;;;;;;2.17;1.00;;;18.30;77.50;;;;;;4989561;28;20458;-48
2024/04/06 12:42:09;;;;;;;2.87;1.37;;;18.30;77.70;;;;;;4996197;28;20446;-45
2024/04/06 12:44:35;;;;;;;1.33;0.90;;;18.30;77.80;;;;;;4995520;28;20457;-46
2024/04/06 12:47:03;;;;;;;1.57;1.30;;;18.30;77.10;;;;;;4990666;28;20453;-46
2024/04/06 12:49:29;;;;;;;1.03;0.90;;;18.40;76.90;;;;;;4993369;28;20453;-46